createdAt,value
2022-11-13T00:00:02.161Z,101312.38
2022-11-13T00:02:49.341Z,101305.19
2022-11-13T00:05:37.489Z,101295.50
2022-11-13T00:08:25.799Z,101300.53
2022-11-13T00:11:15.925Z,101296.94
2022-11-13T00:14:02.723Z,101304.56
2022-11-13T00:16:49.642Z,101294.00
2022-11-13T00:19:36.978Z,101296.38
2022-11-13T00:22:23.750Z,101289.41
2022-11-13T00:25:12.128Z,101297.03
2022-11-13T00:27:58.677Z,101279.53
2022-11-13T00:30:45.665Z,101275.03
2022-11-13T00:34:02.034Z,101280.06
2022-11-13T00:36:39.392Z,101282.56
2022-11-13T00:39:26.293Z,101285.06
2022-11-13T00:42:14.530Z,101277.19
2022-11-13T00:45:01.693Z,101277.09
2022-11-13T00:47:48.699Z,101265.69
2022-11-13T00:50:35.552Z,101277.72
2022-11-13T00:53:22.851Z,101265.50
2022-11-13T00:56:09.802Z,101263.72
2022-11-13T00:58:58.100Z,101272.31
2022-11-13T01:01:45.097Z,101269.56
2022-11-13T01:04:32.211Z,101271.25
2022-11-13T01:07:19.204Z,101275.47
2022-11-13T01:10:06.901Z,101260.69
2022-11-13T01:12:53.992Z,101264.97
2022-11-13T01:15:43.528Z,101263.19
2022-11-13T01:18:30.709Z,101259.69
2022-11-13T01:21:19.970Z,101254.38
2022-11-13T01:24:07.408Z,101243.97
2022-11-13T01:26:54.354Z,101249.16
2022-11-13T01:29:41.347Z,101242.19
2022-11-13T01:32:29.727Z,101240.34
2022-11-13T01:35:16.779Z,101241.25
2022-11-13T01:38:03.692Z,101232.66
2022-11-13T01:40:50.737Z,101230.03
2022-11-13T01:43:39.460Z,101221.34
2022-11-13T01:46:28.945Z,101217.91
2022-11-13T01:49:35.748Z,101217.91
2022-11-13T01:52:26.354Z,101221.34
2022-11-13T01:55:16.985Z,101218.75
2022-11-13T01:58:05.882Z,101211.72
2022-11-13T02:00:52.983Z,101211.72
2022-11-13T02:03:40.110Z,101203.91
2022-11-13T02:06:34.104Z,101193.50
2022-11-13T02:09:23.477Z,101198.69
2022-11-13T02:12:13.774Z,101196.09
2022-11-13T02:15:01.859Z,101203.91
2022-11-13T02:17:52.615Z,101205.72
2022-11-13T02:20:48.074Z,101203.13
2022-11-13T02:23:45.493Z,101198.88
2022-11-13T02:26:34.775Z,101199.88
2022-11-13T02:29:21.617Z,101198.25
2022-11-13T02:32:08.473Z,101192.25
2022-11-13T02:34:55.562Z,101201.03
2022-11-13T02:37:42.555Z,101199.41
2022-11-13T02:40:29.824Z,101193.31
2022-11-13T02:43:18.054Z,101192.50
2022-11-13T02:46:05.063Z,101192.41
2022-11-13T02:48:51.849Z,101188.09
2022-11-13T02:51:38.906Z,101181.91
2022-11-13T02:54:25.919Z,101183.63
2022-11-13T02:57:12.734Z,101180.13
2022-11-13T03:00:01.244Z,101178.25
2022-11-13T03:02:47.908Z,101175.53
2022-11-13T03:05:34.945Z,101177.16
2022-11-13T03:08:24.056Z,101172.66
2022-11-13T03:11:12.356Z,101180.31
2022-11-13T03:13:59.142Z,101177.53
2022-11-13T03:16:47.318Z,101172.16
2022-11-13T03:19:34.183Z,101169.34
2022-11-13T03:22:21.221Z,101169.19
2022-11-13T03:25:10.706Z,101159.38
2022-11-13T03:27:57.738Z,101159.22
2022-11-13T03:30:44.713Z,101150.41
2022-11-13T03:33:33.819Z,101155.44
2022-11-13T03:36:20.899Z,101147.47
2022-11-13T03:39:07.955Z,101147.38
2022-11-13T03:41:54.945Z,101149.69
2022-11-13T03:44:41.869Z,101152.28
2022-11-13T03:47:28.758Z,101148.63
2022-11-13T03:50:17.358Z,101147.56
2022-11-13T03:53:04.330Z,101151.66
2022-11-13T03:55:51.186Z,101141.97
2022-11-13T03:58:40.269Z,101147.19
2022-11-13T04:01:27.269Z,101140.03
2022-11-13T04:04:14.132Z,101134.63
2022-11-13T04:07:02.918Z,101131.03
2022-11-13T04:09:49.780Z,101134.34
2022-11-13T04:12:36.392Z,101131.56
2022-11-13T04:15:23.877Z,101134.88
2022-11-13T04:18:10.742Z,101126.00
2022-11-13T04:21:00.954Z,101138.91
2022-11-13T04:23:49.155Z,101125.63
2022-11-13T04:26:35.964Z,101128.16
2022-11-13T04:29:22.898Z,101121.84
2022-11-13T04:32:09.869Z,101116.59
2022-11-13T04:34:56.858Z,101113.78
2022-11-13T04:37:43.843Z,101111.00
2022-11-13T04:40:32.268Z,101109.03
2022-11-13T04:43:18.262Z,101110.53
2022-11-13T04:46:05.013Z,101109.47
2022-11-13T04:48:51.756Z,101103.28
2022-11-13T04:51:39.887Z,101101.38
2022-11-13T04:54:28.946Z,101101.22
2022-11-13T04:57:17.314Z,101107.13
2022-11-13T05:00:06.355Z,101104.31
2022-11-13T05:02:53.305Z,101103.31
2022-11-13T05:05:40.218Z,101097.94
2022-11-13T05:08:27.322Z,101106.53
2022-11-13T05:11:14.050Z,101111.56
2022-11-13T05:14:03.786Z,101108.75
2022-11-13T05:16:51.629Z,101107.75
2022-11-13T05:19:38.541Z,101110.13
2022-11-13T05:22:25.391Z,101093.56
2022-11-13T05:25:12.431Z,101093.34
2022-11-13T05:27:59.789Z,101092.28
2022-11-13T05:30:48.499Z,101085.97
2022-11-13T05:33:35.906Z,101090.09
2022-11-13T05:36:23.616Z,101079.53
2022-11-13T05:39:11.859Z,101084.53
2022-11-13T05:41:58.795Z,101079.13
2022-11-13T05:44:45.864Z,101073.75
2022-11-13T05:47:34.968Z,101069.16
2022-11-13T05:50:22.518Z,101069.88
2022-11-13T05:53:09.533Z,101065.50
2022-11-13T05:56:00.482Z,101058.31
2022-11-13T05:58:48.173Z,101061.72
2022-11-13T06:01:38.228Z,101058.13
2022-11-13T06:04:28.503Z,101054.53
2022-11-13T06:07:15.631Z,101053.63
2022-11-13T06:10:02.569Z,101044.06
2022-11-13T06:12:49.440Z,101042.25
2022-11-13T06:15:36.332Z,101033.56
2022-11-13T06:18:26.615Z,101038.75
2022-11-13T06:21:16.732Z,101025.66
2022-11-13T06:24:03.881Z,101035.16
2022-11-13T06:26:50.612Z,101032.50
2022-11-13T06:29:37.519Z,101033.19
2022-11-13T06:32:24.716Z,101027.00
2022-11-13T06:35:11.745Z,101032.19
2022-11-13T06:38:00.029Z,101020.00
2022-11-13T06:40:50.036Z,101010.31
2022-11-13T06:43:37.110Z,101014.56
2022-11-13T06:46:26.134Z,101015.25
2022-11-13T06:49:13.158Z,101012.56
2022-11-13T06:51:59.858Z,101011.66
2022-11-13T06:54:48.147Z,101013.25
2022-11-13T06:57:34.963Z,101012.25
2022-11-13T07:00:22.260Z,101013.06
2022-11-13T07:03:17.079Z,101006.97
2022-11-13T07:06:05.634Z,101005.19
2022-11-13T07:08:53.331Z,101014.66
2022-11-13T07:11:41.676Z,101014.66
2022-11-13T07:14:28.622Z,101016.25
2022-11-13T07:17:15.673Z,101013.66
2022-11-13T07:20:02.885Z,101013.47
2022-11-13T07:22:49.819Z,101009.06
2022-11-13T07:25:36.513Z,101003.88
2022-11-13T07:28:25.048Z,101000.50
2022-11-13T07:31:13.412Z,101003.19
2022-11-13T07:34:00.055Z,101016.25
2022-11-13T07:36:46.966Z,100993.91
2022-11-13T07:39:34.037Z,100992.31
2022-11-13T07:42:20.675Z,100989.91
2022-11-13T07:45:09.868Z,100992.56
2022-11-13T07:47:59.312Z,100986.78
2022-11-13T07:50:46.242Z,100984.38
2022-11-13T07:53:33.059Z,100981.06
2022-11-13T07:56:22.979Z,100983.97
2022-11-13T07:59:10.157Z,100985.06
2022-11-13T08:01:58.450Z,100981.84
2022-11-13T08:04:45.489Z,100971.66
2022-11-13T08:07:32.536Z,100971.03
2022-11-13T08:10:21.349Z,100972.19
2022-11-13T08:13:10.343Z,100974.19
2022-11-13T08:16:00.275Z,100971.88
2022-11-13T08:18:48.872Z,100972.25
2022-11-13T08:21:36.600Z,100966.50
2022-11-13T08:24:23.564Z,100966.91
2022-11-13T08:27:10.454Z,100969.06
2022-11-13T08:29:57.493Z,100967.84
2022-11-13T08:32:44.460Z,100959.59
2022-11-13T08:35:32.719Z,100961.94
2022-11-13T08:38:19.566Z,100964.25
2022-11-13T08:41:09.683Z,100957.78
2022-11-13T08:43:56.628Z,100957.50
2022-11-13T08:46:43.500Z,100952.03
2022-11-13T08:49:30.451Z,100943.94
2022-11-13T08:52:18.654Z,100947.03
2022-11-13T08:55:06.291Z,100938.94
2022-11-13T08:57:55.212Z,100939.63
2022-11-13T09:00:42.368Z,100930.78
2022-11-13T09:03:29.365Z,100931.53
2022-11-13T09:06:16.515Z,100935.69
2022-11-13T09:09:06.051Z,100928.66
2022-11-13T09:11:52.868Z,100923.38
2022-11-13T09:14:39.908Z,100925.97
2022-11-13T09:17:29.108Z,100918.75
2022-11-13T09:20:19.069Z,100914.22
2022-11-13T09:23:09.426Z,100913.28
2022-11-13T09:25:57.814Z,100909.84
2022-11-13T09:28:44.912Z,100910.72
2022-11-13T09:31:31.693Z,100903.69
2022-11-13T09:34:18.939Z,100907.97
2022-11-13T09:37:08.092Z,100906.06
2022-11-13T09:39:54.862Z,100895.44
2022-11-13T09:42:43.301Z,100901.41
2022-11-13T09:45:31.374Z,100895.06
2022-11-13T09:48:26.752Z,100884.53
2022-11-13T09:51:17.660Z,100899.34
2022-11-13T09:54:07.335Z,100894.88
2022-11-13T09:57:00.524Z,100888.75
2022-11-13T09:59:53.384Z,100879.03
2022-11-13T10:02:53.890Z,100885.94
2022-11-13T10:05:48.701Z,100880.53
2022-11-13T10:08:49.544Z,100881.28
2022-11-13T10:11:40.508Z,100883.75
2022-11-13T10:14:32.629Z,100875.66
2022-11-13T10:17:27.826Z,100875.41
2022-11-13T10:20:21.729Z,100870.75
2022-11-13T10:23:15.548Z,100863.50
2022-11-13T10:26:14.721Z,100862.31
2022-11-13T10:29:11.540Z,100864.56
2022-11-13T10:31:59.316Z,100855.50
2022-11-13T10:34:55.566Z,100857.72
2022-11-13T10:37:52.790Z,100851.16
2022-11-13T10:40:41.307Z,100852.47
2022-11-13T10:43:28.627Z,100855.53
2022-11-13T10:46:21.613Z,100846.31
2022-11-13T10:49:19.092Z,100838.81
2022-11-13T10:52:19.792Z,100838.28
2022-11-13T10:55:17.365Z,100843.88
2022-11-13T10:58:11.794Z,100833.69
2022-11-13T11:00:58.621Z,100828.72
2022-11-13T11:03:52.322Z,100825.47
2022-11-13T11:07:18.498Z,100824.78
2022-11-13T11:09:52.405Z,100818.81
2022-11-13T11:12:39.262Z,100820.81
2022-11-13T11:15:30.946Z,100819.25
2022-11-13T11:18:26.208Z,100815.00
2022-11-13T11:21:17.281Z,100803.75
2022-11-13T11:24:10.379Z,100805.63
2022-11-13T11:27:02.613Z,100799.69
2022-11-13T11:29:56.549Z,100795.41
2022-11-13T11:32:48.292Z,100794.63
2022-11-13T11:35:44.517Z,100795.66
2022-11-13T11:38:37.017Z,100787.03
2022-11-13T11:41:30.502Z,100783.63
2022-11-13T11:44:25.629Z,100787.25
2022-11-13T11:47:16.096Z,100782.03
2022-11-13T11:50:03.826Z,100780.31
2022-11-13T11:53:00.916Z,100774.22
2022-11-13T11:56:14.718Z,100768.94
2022-11-13T11:59:21.134Z,100769.09
2022-11-13T12:02:52.358Z,100766.53
2022-11-13T12:05:48.665Z,100750.81
2022-11-13T12:08:46.070Z,100744.75
2022-11-13T12:11:36.050Z,100742.25
2022-11-13T12:14:35.493Z,100729.16
2022-11-13T12:17:43.596Z,100728.41
2022-11-13T12:20:39.856Z,100722.34
2022-11-13T12:23:53.736Z,100717.97
2022-11-13T12:26:47.498Z,100709.25
2022-11-13T12:29:47.232Z,100703.19
2022-11-13T12:32:47.720Z,100697.97
2022-11-13T12:35:37.686Z,100683.13
2022-11-13T12:38:35.230Z,100686.78
2022-11-13T12:41:28.935Z,100680.66
2022-11-13T12:44:24.680Z,100675.50
2022-11-13T12:47:12.057Z,100677.31
2022-11-13T12:50:04.780Z,100666.81
2022-11-13T12:53:04.930Z,100667.72
2022-11-13T12:56:00.247Z,100668.66
2022-11-13T12:59:23.599Z,100658.19
2022-11-13T13:02:23.290Z,100648.66
2022-11-13T13:05:24.840Z,100648.72
2022-11-13T13:08:47.633Z,100643.50
2022-11-13T13:11:43.522Z,100640.91
2022-11-13T13:14:43.542Z,100640.13
2022-11-13T13:17:30.618Z,100634.88
2022-11-13T13:20:33.487Z,100631.47
2022-11-13T13:23:30.517Z,100625.41
2022-11-13T13:26:20.327Z,100621.03
2022-11-13T13:29:19.584Z,100618.47
2022-11-13T13:32:20.807Z,100612.34
2022-11-13T13:35:19.550Z,100599.16
2022-11-13T13:38:18.460Z,100597.44
2022-11-13T13:41:21.974Z,100599.22
2022-11-13T13:44:29.039Z,100589.59
2022-11-13T13:47:23.264Z,100584.31
2022-11-13T13:50:17.390Z,100579.03
2022-11-13T13:53:04.372Z,100579.03
2022-11-13T13:55:54.162Z,100569.34
2022-11-13T13:58:42.976Z,100573.75
2022-11-13T14:01:32.261Z,100571.09
2022-11-13T14:04:22.355Z,100569.34
2022-11-13T14:07:21.377Z,100567.59
2022-11-13T14:10:15.275Z,100566.72
2022-11-13T14:13:01.957Z,100562.28
2022-11-13T14:15:50.381Z,100557.84
2022-11-13T14:18:37.403Z,100560.50
2022-11-13T14:21:25.178Z,100561.34
2022-11-13T14:24:17.458Z,100578.06
2022-11-13T14:27:11.033Z,100575.38
2022-11-13T14:30:00.783Z,100569.06
2022-11-13T14:32:49.047Z,100572.50
2022-11-13T14:35:36.679Z,100563.59
2022-11-13T14:38:26.217Z,100559.97
2022-11-13T14:41:23.110Z,100566.00
2022-11-13T14:44:12.625Z,100562.34
2022-11-13T14:47:01.878Z,100556.91
2022-11-13T14:49:50.208Z,100549.72
2022-11-13T14:52:37.272Z,100549.56
2022-11-13T14:55:26.673Z,100543.19
2022-11-13T14:58:14.962Z,100539.50
2022-11-13T15:01:15.370Z,100537.63
2022-11-13T15:04:02.315Z,100539.19
2022-11-13T15:06:55.352Z,100539.94
2022-11-13T15:09:42.349Z,100525.72
2022-11-13T15:12:31.978Z,100527.31
2022-11-13T15:15:21.430Z,100528.94
2022-11-13T15:18:16.257Z,100528.78
2022-11-13T15:21:03.122Z,100528.66
2022-11-13T15:23:51.611Z,100523.19
2022-11-13T15:26:38.632Z,100526.53
2022-11-13T15:29:25.214Z,100528.94
2022-11-13T15:32:13.397Z,100528.72
2022-11-13T15:35:00.002Z,100518.81
2022-11-13T15:37:47.066Z,100524.72
2022-11-13T15:40:35.468Z,100517.47
2022-11-13T15:43:22.414Z,100518.09
2022-11-13T15:46:14.641Z,100505.59
2022-11-13T15:49:01.191Z,100500.09
2022-11-13T15:51:48.348Z,100505.09
2022-11-13T15:54:38.570Z,100499.56
2022-11-13T15:57:29.621Z,100500.94
2022-11-13T16:00:18.830Z,100493.63
2022-11-13T16:03:11.408Z,100503.00
2022-11-13T16:05:59.216Z,100496.63
2022-11-13T16:08:46.726Z,100496.38
2022-11-13T16:11:35.350Z,100490.06
2022-11-13T16:14:25.013Z,100490.75
2022-11-13T16:17:14.374Z,100492.31
2022-11-13T16:20:01.498Z,100484.25
2022-11-13T16:22:48.327Z,100482.31
2022-11-13T16:25:35.285Z,100480.44
2022-11-13T16:28:22.200Z,100482.00
2022-11-13T16:31:10.985Z,100481.91
2022-11-13T16:33:57.733Z,100477.38
2022-11-13T16:36:44.763Z,100477.22
2022-11-13T16:39:31.743Z,100473.59
2022-11-13T16:42:19.030Z,100471.63
2022-11-13T16:45:06.388Z,100476.72
2022-11-13T16:47:54.758Z,100473.84
2022-11-13T16:50:42.736Z,100465.81
2022-11-13T16:53:30.120Z,100474.41
2022-11-13T16:56:24.900Z,100466.34
2022-11-13T16:59:12.904Z,100458.31
2022-11-13T17:02:00.060Z,100462.53
2022-11-13T17:04:48.620Z,100464.16
2022-11-13T17:07:35.597Z,100456.28
2022-11-13T17:10:31.953Z,100457.97
2022-11-13T17:13:19.594Z,100463.13
2022-11-13T17:16:07.167Z,100459.59
2022-11-13T17:18:55.297Z,100447.41
2022-11-13T17:21:44.550Z,100445.59
2022-11-13T17:24:31.496Z,100448.19
2022-11-13T17:27:18.909Z,100437.72
2022-11-13T17:30:06.852Z,100434.19
2022-11-13T17:32:53.835Z,100425.34
2022-11-13T17:35:40.867Z,100438.41
2022-11-13T17:38:29.697Z,100429.53
2022-11-13T17:41:17.628Z,100423.34
2022-11-13T17:44:05.062Z,100418.03
2022-11-13T17:46:52.051Z,100425.00
2022-11-13T17:49:38.959Z,100416.19
2022-11-13T17:52:28.320Z,100413.44
2022-11-13T17:55:17.322Z,100408.03
2022-11-13T17:58:04.435Z,100402.59
2022-11-13T18:00:52.012Z,100411.22
2022-11-13T18:03:38.865Z,100402.34
2022-11-13T18:06:26.333Z,100398.72
2022-11-13T18:09:13.191Z,100398.56
2022-11-13T18:12:01.332Z,100410.72
2022-11-13T18:14:52.559Z,100401.88
2022-11-13T18:17:40.041Z,100405.22
2022-11-13T18:20:27.799Z,100403.34
2022-11-13T18:23:14.775Z,100398.03
2022-11-13T18:26:08.160Z,100397.00
2022-11-13T18:28:56.344Z,100397.69
2022-11-13T18:31:43.119Z,100395.78
2022-11-13T18:34:31.939Z,100392.06
2022-11-13T18:37:18.985Z,100392.81
2022-11-13T18:40:07.190Z,100401.28
2022-11-13T18:42:54.251Z,100397.59
2022-11-13T18:45:42.511Z,100392.97
2022-11-13T18:48:31.630Z,100382.28
2022-11-13T18:51:21.210Z,100382.97
2022-11-13T18:54:11.573Z,100386.19
2022-11-13T18:56:58.371Z,100389.44
2022-11-13T18:59:45.317Z,100382.28
2022-11-13T19:02:33.545Z,100389.84
2022-11-13T19:05:20.513Z,100389.63
2022-11-13T19:08:07.550Z,100379.88
2022-11-13T19:10:54.426Z,100382.31
2022-11-13T19:13:45.410Z,100374.38
2022-11-13T19:16:36.311Z,100375.09
2022-11-13T19:19:29.487Z,100371.50
2022-11-13T19:22:16.595Z,100364.44
2022-11-13T19:25:03.718Z,100373.00
2022-11-13T19:27:55.782Z,100367.66
2022-11-13T19:30:54.788Z,100366.66
2022-11-13T19:33:44.261Z,100358.63
2022-11-13T19:36:33.306Z,100367.22
2022-11-13T19:39:20.621Z,100368.78
2022-11-13T19:42:07.373Z,100372.09
2022-11-13T19:44:54.346Z,100369.38
2022-11-13T19:47:41.370Z,100357.88
2022-11-13T19:50:28.312Z,100360.31
2022-11-13T19:53:16.701Z,100357.53
2022-11-13T19:56:04.087Z,100355.63
2022-11-13T19:58:52.381Z,100363.31
2022-11-13T20:01:42.714Z,100363.91
2022-11-13T20:04:29.997Z,100354.94
2022-11-13T20:07:16.738Z,100349.53
2022-11-13T20:10:05.735Z,100349.25
2022-11-13T20:12:52.459Z,100344.63
2022-11-13T20:15:42.084Z,100344.44
2022-11-13T20:18:29.445Z,100346.00
2022-11-13T20:21:24.403Z,100347.50
2022-11-13T20:24:13.853Z,100344.63
2022-11-13T20:27:02.331Z,100334.81
2022-11-13T20:29:48.904Z,100332.03
2022-11-13T20:32:37.774Z,100331.84
2022-11-13T20:35:24.404Z,100326.44
2022-11-13T20:38:11.663Z,100333.19
2022-11-13T20:40:58.404Z,100331.31
2022-11-13T20:43:46.861Z,100328.50
2022-11-13T20:46:36.819Z,100322.25
2022-11-13T20:49:24.015Z,100318.59
2022-11-13T20:52:10.808Z,100321.16
2022-11-13T20:54:57.801Z,100313.22
2022-11-13T20:57:44.902Z,100316.59
2022-11-13T21:00:33.219Z,100309.44
2022-11-13T21:03:20.144Z,100308.41
2022-11-13T21:06:08.041Z,100305.66
2022-11-13T21:08:56.302Z,100300.28
2022-11-13T21:11:42.894Z,100302.78
2022-11-13T21:14:29.869Z,100305.25
2022-11-13T21:17:18.213Z,100297.25
2022-11-13T21:20:05.130Z,100302.38
2022-11-13T21:22:51.785Z,100298.69
2022-11-13T21:25:39.005Z,100297.78
2022-11-13T21:28:30.600Z,100290.66
2022-11-13T21:31:21.412Z,100290.53
2022-11-13T21:34:10.424Z,100290.41
2022-11-13T21:36:57.317Z,100286.84
2022-11-13T21:39:44.605Z,100281.47
2022-11-13T21:42:31.500Z,100280.53
2022-11-13T21:45:18.484Z,100284.66
2022-11-13T21:48:05.891Z,100276.78
2022-11-13T21:50:54.266Z,100274.84
2022-11-13T21:53:42.814Z,100277.25
2022-11-13T21:56:31.560Z,100274.41
2022-11-13T21:59:18.533Z,100262.91
2022-11-13T22:02:05.686Z,100261.81
2022-11-13T22:04:52.646Z,100260.75
2022-11-13T22:07:40.672Z,100261.50
2022-11-13T22:10:27.649Z,100261.28
2022-11-13T22:13:14.649Z,100256.75
2022-11-13T22:16:03.709Z,100250.63
2022-11-13T22:18:59.289Z,100248.78
2022-11-13T22:21:47.304Z,100247.75
2022-11-13T22:24:35.544Z,100237.13
2022-11-13T22:27:22.549Z,100236.13
2022-11-13T22:30:10.531Z,100237.63
2022-11-13T22:32:57.498Z,100238.28
2022-11-13T22:35:44.487Z,100240.69
2022-11-13T22:38:31.848Z,100245.75
2022-11-13T22:41:24.007Z,100237.75
2022-11-13T22:44:13.809Z,100230.66
2022-11-13T22:47:00.605Z,100232.28
2022-11-13T22:49:47.353Z,100228.63
2022-11-13T22:52:34.367Z,100233.78
2022-11-13T22:55:21.356Z,100232.75
2022-11-13T22:58:09.449Z,100227.41
2022-11-13T23:00:56.646Z,100223.78
2022-11-13T23:03:46.436Z,100225.28
2022-11-13T23:06:35.781Z,100216.38
2022-11-13T23:09:22.701Z,100210.97
2022-11-13T23:12:09.684Z,100216.75
2022-11-13T23:14:57.997Z,100212.25
2022-11-13T23:17:46.163Z,100204.25
2022-11-13T23:20:32.947Z,100206.72
2022-11-13T23:23:19.885Z,100201.28
2022-11-13T23:26:08.598Z,100198.53
2022-11-13T23:28:55.555Z,100199.19
2022-11-13T23:31:43.713Z,100188.59
2022-11-13T23:34:53.382Z,100181.44
2022-11-13T23:37:37.877Z,100178.66
2022-11-13T23:40:24.685Z,100181.91
2022-11-13T23:43:12.006Z,100186.09
2022-11-13T23:45:58.661Z,100181.47
2022-11-13T23:48:47.008Z,100176.13
2022-11-13T23:51:33.887Z,100176.81
2022-11-13T23:54:20.775Z,100174.06
2022-11-13T23:57:07.688Z,100168.72
2022-11-13T23:59:54.604Z,100166.78
